sensor_id;sensor_type;location;lat;lon;timestamp;P1;P2;P0
73749;PMS7003;62058;48.406;-4.514;2023-02-25T00:01:15;5.25;4.75;4.75
73749;PMS7003;62058;48.406;-4.514;2023-02-25T00:03:41;10.50;3.50;3.50
73749;PMS7003;62058;48.406;-4.514;2023-02-25T00:06:07;7.50;5.00;4.25
73749;PMS7003;62058;48.406;-4.514;2023-02-25T00:08:33;9.25;6.75;6.25
73749;PMS7003;62058;48.406;-4.514;2023-02-25T00:11:00;9.50;6.00;5.00
73749;PMS7003;62058;48.406;-4.514;2023-02-25T00:13:26;6.50;5.50;4.00
73749;PMS7003;62058;48.406;-4.514;2023-02-25T00:15:51;6.50;5.25;4.50
73749;PMS7003;62058;48.406;-4.514;2023-02-25T00:18:16;7.00;5.00;5.00
73749;PMS7003;62058;48.406;-4.514;2023-02-25T00:20:42;6.00;5.00;5.00
73749;PMS7003;62058;48.406;-4.514;2023-02-25T00:23:08;9.00;7.25;6.75
73749;PMS7003;62058;48.406;-4.514;2023-02-25T00:25:33;7.67;5.67;5.00
73749;PMS7003;62058;48.406;-4.514;2023-02-25T00:27:58;7.67;4.00;4.00
73749;PMS7003;62058;48.406;-4.514;2023-02-25T00:30:24;8.00;3.00;3.00
73749;PMS7003;62058;48.406;-4.514;2023-02-25T00:32:49;13.00;7.00;6.25
73749;PMS7003;62058;48.406;-4.514;2023-02-25T00:35:14;8.00;6.67;6.00
73749;PMS7003;62058;48.406;-4.514;2023-02-25T00:37:40;8.75;7.00;6.25
73749;PMS7003;62058;48.406;-4.514;2023-02-25T00:40:06;8.33;7.00;6.00
73749;PMS7003;62058;48.406;-4.514;2023-02-25T00:42:38;7.50;4.25;4.00
73749;PMS7003;62058;48.406;-4.514;2023-02-25T00:45:04;12.50;10.00;8.00
73749;PMS7003;62058;48.406;-4.514;2023-02-25T00:47:29;16.00;10.50;8.75
73749;PMS7003;62058;48.406;-4.514;2023-02-25T00:49:54;4.75;3.25;3.25
73749;PMS7003;62058;48.406;-4.514;2023-02-25T00:52:20;18.00;9.67;9.00
73749;PMS7003;62058;48.406;-4.514;2023-02-25T00:54:45;10.67;9.33;9.00
73749;PMS7003;62058;48.406;-4.514;2023-02-25T00:57:10;11.00;7.67;7.00
73749;PMS7003;62058;48.406;-4.514;2023-02-25T00:59:35;10.75;9.00;9.00
73749;PMS7003;62058;48.406;-4.514;2023-02-25T01:02:01;9.75;9.25;7.75
73749;PMS7003;62058;48.406;-4.514;2023-02-25T01:04:26;8.00;7.67;6.67
73749;PMS7003;62058;48.406;-4.514;2023-02-25T01:06:51;13.00;8.00;7.00
73749;PMS7003;62058;48.406;-4.514;2023-02-25T01:09:18;13.50;8.75;7.75
73749;PMS7003;62058;48.406;-4.514;2023-02-25T01:11:44;9.75;8.75;7.75
73749;PMS7003;62058;48.406;-4.514;2023-02-25T01:14:11;12.25;11.00;8.75
73749;PMS7003;62058;48.406;-4.514;2023-02-25T01:16:36;10.00;10.00;8.00
73749;PMS7003;62058;48.406;-4.514;2023-02-25T01:19:03;12.67;10.67;9.00
73749;PMS7003;62058;48.406;-4.514;2023-02-25T01:21:33;13.50;10.00;8.75
73749;PMS7003;62058;48.406;-4.514;2023-02-25T01:24:00;10.75;10.50;9.50
73749;PMS7003;62058;48.406;-4.514;2023-02-25T01:26:27;12.25;10.25;8.25
73749;PMS7003;62058;48.406;-4.514;2023-02-25T01:28:52;12.50;11.25;9.50
73749;PMS7003;62058;48.406;-4.514;2023-02-25T01:31:18;11.00;9.00;8.33
73749;PMS7003;62058;48.406;-4.514;2023-02-25T01:33:44;10.75;10.50;9.25
73749;PMS7003;62058;48.406;-4.514;2023-02-25T01:36:09;9.00;7.75;7.25
73749;PMS7003;62058;48.406;-4.514;2023-02-25T01:38:34;10.00;9.00;7.00
73749;PMS7003;62058;48.406;-4.514;2023-02-25T01:41:00;9.50;9.50;8.50
73749;PMS7003;62058;48.406;-4.514;2023-02-25T01:43:26;14.25;8.75;8.00
73749;PMS7003;62058;48.406;-4.514;2023-02-25T01:45:52;10.25;8.00;6.25
73749;PMS7003;62058;48.406;-4.514;2023-02-25T01:48:19;13.00;13.00;10.00
73749;PMS7003;62058;48.406;-4.514;2023-02-25T01:50:47;14.25;11.25;10.25
73749;PMS7003;62058;48.406;-4.514;2023-02-25T01:53:13;6.50;6.50;5.00
73749;PMS7003;62058;48.406;-4.514;2023-02-25T01:55:39;15.25;12.25;9.75
73749;PMS7003;62058;48.406;-4.514;2023-02-25T01:58:05;12.75;10.50;9.00
73749;PMS7003;62058;48.406;-4.514;2023-02-25T02:00:33;12.00;10.50;10.00
73749;PMS7003;62058;48.406;-4.514;2023-02-25T02:02:59;18.25;8.75;6.75
73749;PMS7003;62058;48.406;-4.514;2023-02-25T02:05:27;12.25;10.25;9.25
73749;PMS7003;62058;48.406;-4.514;2023-02-25T02:07:57;9.75;9.00;7.00
73749;PMS7003;62058;48.406;-4.514;2023-02-25T02:10:23;11.00;7.75;7.25
73749;PMS7003;62058;48.406;-4.514;2023-02-25T02:12:49;11.00;8.50;6.75
73749;PMS7003;62058;48.406;-4.514;2023-02-25T02:15:14;8.50;6.75;5.75
73749;PMS7003;62058;48.406;-4.514;2023-02-25T02:17:48;9.33;7.00;6.00
73749;PMS7003;62058;48.406;-4.514;2023-02-25T02:20:18;10.00;7.00;7.00
73749;PMS7003;62058;48.406;-4.514;2023-02-25T02:28:31;13.25;12.00;10.00
73749;PMS7003;62058;48.406;-4.514;2023-02-25T02:33:44;9.25;7.50;6.00
73749;PMS7003;62058;48.406;-4.514;2023-02-25T02:36:18;11.25;9.50;9.00
73749;PMS7003;62058;48.406;-4.514;2023-02-25T02:38:53;15.00;11.25;9.25
73749;PMS7003;62058;48.406;-4.514;2023-02-25T02:41:38;18.25;12.75;9.00
73749;PMS7003;62058;48.406;-4.514;2023-02-25T02:46:41;10.00;9.25;7.00
73749;PMS7003;62058;48.406;-4.514;2023-02-25T02:49:11;10.50;5.50;5.25
73749;PMS7003;62058;48.406;-4.514;2023-02-25T02:51:43;0.75;0.75;0.25
73749;PMS7003;62058;48.406;-4.514;2023-02-25T02:54:11;12.00;6.50;5.50
73749;PMS7003;62058;48.406;-4.514;2023-02-25T02:56:38;13.00;7.75;7.25
73749;PMS7003;62058;48.406;-4.514;2023-02-25T02:59:12;9.50;4.75;4.25
73749;PMS7003;62058;48.406;-4.514;2023-02-25T03:01:47;14.75;8.75;7.25
73749;PMS7003;62058;48.406;-4.514;2023-02-25T03:04:16;13.25;8.00;7.00
73749;PMS7003;62058;48.406;-4.514;2023-02-25T03:06:44;5.50;4.25;3.75
73749;PMS7003;62058;48.406;-4.514;2023-02-25T03:09:23;9.00;4.75;4.75
73749;PMS7003;62058;48.406;-4.514;2023-02-25T03:11:49;10.25;8.75;7.50
73749;PMS7003;62058;48.406;-4.514;2023-02-25T03:14:14;16.50;12.00;10.25
73749;PMS7003;62058;48.406;-4.514;2023-02-25T03:16:42;9.75;4.00;4.00
73749;PMS7003;62058;48.406;-4.514;2023-02-25T03:19:15;11.00;5.00;4.75
73749;PMS7003;62058;48.406;-4.514;2023-02-25T03:21:43;6.25;4.25;3.75
73749;PMS7003;62058;48.406;-4.514;2023-02-25T03:24:13;5.50;3.50;3.50
73749;PMS7003;62058;48.406;-4.514;2023-02-25T03:26:39;8.25;4.00;4.00
73749;PMS7003;62058;48.406;-4.514;2023-02-25T03:29:12;11.50;10.00;9.50
73749;PMS7003;62058;48.406;-4.514;2023-02-25T03:31:56;9.50;6.50;6.50
73749;PMS7003;62058;48.406;-4.514;2023-02-25T03:34:43;8.50;3.00;3.00
73749;PMS7003;62058;48.406;-4.514;2023-02-25T03:37:10;11.50;10.75;9.00
73749;PMS7003;62058;48.406;-4.514;2023-02-25T03:39:41;16.75;4.75;4.75
73749;PMS7003;62058;48.406;-4.514;2023-02-25T03:42:09;5.25;5.25;4.75
73749;PMS7003;62058;48.406;-4.514;2023-02-25T03:44:40;18.25;12.00;8.00
73749;PMS7003;62058;48.406;-4.514;2023-02-25T03:47:08;9.50;3.50;3.50
73749;PMS7003;62058;48.406;-4.514;2023-02-25T03:49:43;13.75;10.75;10.25
73749;PMS7003;62058;48.406;-4.514;2023-02-25T03:52:12;10.00;8.00;6.50
73749;PMS7003;62058;48.406;-4.514;2023-02-25T03:54:38;6.25;4.00;4.00
73749;PMS7003;62058;48.406;-4.514;2023-02-25T03:57:04;15.00;8.00;7.25
73749;PMS7003;62058;48.406;-4.514;2023-02-25T03:59:29;12.25;7.50;5.75
73749;PMS7003;62058;48.406;-4.514;2023-02-25T04:01:55;6.00;6.00;6.00
73749;PMS7003;62058;48.406;-4.514;2023-02-25T04:04:21;7.75;3.50;3.50
73749;PMS7003;62058;48.406;-4.514;2023-02-25T04:06:47;5.50;5.50;5.00
73749;PMS7003;62058;48.406;-4.514;2023-02-25T04:09:12;1.67;1.67;1.67
73749;PMS7003;62058;48.406;-4.514;2023-02-25T04:11:38;5.25;2.00;2.00
73749;PMS7003;62058;48.406;-4.514;2023-02-25T04:14:03;13.33;6.00;6.00
73749;PMS7003;62058;48.406;-4.514;2023-02-25T04:16:28;3.00;1.00;1.00
73749;PMS7003;62058;48.406;-4.514;2023-02-25T04:18:53;4.33;1.67;1.67
73749;PMS7003;62058;48.406;-4.514;2023-02-25T04:21:26;11.00;4.67;4.67
73749;PMS7003;62058;48.406;-4.514;2023-02-25T04:23:52;11.25;8.50;7.50
73749;PMS7003;62058;48.406;-4.514;2023-02-25T04:26:17;13.25;8.75;7.75
73749;PMS7003;62058;48.406;-4.514;2023-02-25T04:28:43;3.33;3.33;3.00
73749;PMS7003;62058;48.406;-4.514;2023-02-25T04:31:08;3.67;0.00;0.00
73749;PMS7003;62058;48.406;-4.514;2023-02-25T04:33:33;7.67;2.33;2.33
73749;PMS7003;62058;48.406;-4.514;2023-02-25T04:35:58;6.33;3.00;3.00
73749;PMS7003;62058;48.406;-4.514;2023-02-25T04:38:23;6.33;4.00;4.00
73749;PMS7003;62058;48.406;-4.514;2023-02-25T04:40:51;4.33;4.33;4.33
73749;PMS7003;62058;48.406;-4.514;2023-02-25T04:43:17;3.50;3.25;3.00
73749;PMS7003;62058;48.406;-4.514;2023-02-25T04:45:42;1.67;1.67;1.67
73749;PMS7003;62058;48.406;-4.514;2023-02-25T04:48:07;4.33;1.67;1.67
73749;PMS7003;62058;48.406;-4.514;2023-02-25T04:50:32;5.33;3.33;3.33
73749;PMS7003;62058;48.406;-4.514;2023-02-25T04:52:58;3.00;0.75;0.75
73749;PMS7003;62058;48.406;-4.514;2023-02-25T04:55:24;5.25;1.00;1.00
73749;PMS7003;62058;48.406;-4.514;2023-02-25T04:57:49;1.67;1.00;1.00
73749;PMS7003;62058;48.406;-4.514;2023-02-25T05:00:15;6.33;4.67;4.00
73749;PMS7003;62058;48.406;-4.514;2023-02-25T05:02:43;3.00;1.00;1.00
73749;PMS7003;62058;48.406;-4.514;2023-02-25T05:05:08;5.25;4.00;3.75
73749;PMS7003;62058;48.406;-4.514;2023-02-25T05:07:34;0.25;0.25;0.25
73749;PMS7003;62058;48.406;-4.514;2023-02-25T05:09:59;4.00;1.00;1.00
73749;PMS7003;62058;48.406;-4.514;2023-02-25T05:12:25;3.00;0.00;0.00
73749;PMS7003;62058;48.406;-4.514;2023-02-25T05:14:50;1.00;0.00;0.00
73749;PMS7003;62058;48.406;-4.514;2023-02-25T05:17:15;0.00;0.00;0.00
73749;PMS7003;62058;48.406;-4.514;2023-02-25T05:19:40;0.00;0.00;0.00
73749;PMS7003;62058;48.406;-4.514;2023-02-25T05:22:07;2.25;1.25;1.00
73749;PMS7003;62058;48.406;-4.514;2023-02-25T05:24:33;3.25;0.25;0.25
73749;PMS7003;62058;48.406;-4.514;2023-02-25T05:26:58;6.25;1.75;1.50
73749;PMS7003;62058;48.406;-4.514;2023-02-25T05:29:28;0.75;0.00;0.00
73749;PMS7003;62058;48.406;-4.514;2023-02-25T05:31:54;1.50;0.00;0.00
73749;PMS7003;62058;48.406;-4.514;2023-02-25T05:34:19;3.00;1.00;1.00
73749;PMS7003;62058;48.406;-4.514;2023-02-25T05:36:46;1.00;0.00;0.00
73749;PMS7003;62058;48.406;-4.514;2023-02-25T05:39:12;0.00;0.00;0.00
73749;PMS7003;62058;48.406;-4.514;2023-02-25T05:41:37;0.00;0.00;0.00
73749;PMS7003;62058;48.406;-4.514;2023-02-25T05:44:02;4.75;1.00;1.00
73749;PMS7003;62058;48.406;-4.514;2023-02-25T05:46:28;0.00;0.00;0.00
73749;PMS7003;62058;48.406;-4.514;2023-02-25T05:48:53;0.00;0.00;0.00
73749;PMS7003;62058;48.406;-4.514;2023-02-25T05:51:19;0.75;0.00;0.00
73749;PMS7003;62058;48.406;-4.514;2023-02-25T05:53:46;0.50;0.00;0.00
73749;PMS7003;62058;48.406;-4.514;2023-02-25T05:56:13;0.00;0.00;0.00
73749;PMS7003;62058;48.406;-4.514;2023-02-25T05:58:39;0.00;0.00;0.00
73749;PMS7003;62058;48.406;-4.514;2023-02-25T06:01:11;1.50;0.00;0.00
73749;PMS7003;62058;48.406;-4.514;2023-02-25T06:03:40;1.00;0.00;0.00
73749;PMS7003;62058;48.406;-4.514;2023-02-25T06:06:06;1.00;0.00;0.00
73749;PMS7003;62058;48.406;-4.514;2023-02-25T06:08:32;0.00;0.00;0.00
73749;PMS7003;62058;48.406;-4.514;2023-02-25T06:10:57;1.00;0.00;0.00
73749;PMS7003;62058;48.406;-4.514;2023-02-25T06:13:24;0.00;0.00;0.00
73749;PMS7003;62058;48.406;-4.514;2023-02-25T06:15:49;2.25;0.00;0.00
73749;PMS7003;62058;48.406;-4.514;2023-02-25T06:18:14;3.00;0.00;0.00
73749;PMS7003;62058;48.406;-4.514;2023-02-25T06:20:40;0.00;0.00;0.00
73749;PMS7003;62058;48.406;-4.514;2023-02-25T06:23:05;0.00;0.00;0.00
73749;PMS7003;62058;48.406;-4.514;2023-02-25T06:25:30;1.00;0.00;0.00
73749;PMS7003;62058;48.406;-4.514;2023-02-25T06:27:56;0.00;0.00;0.00
73749;PMS7003;62058;48.406;-4.514;2023-02-25T06:30:22;2.50;0.00;0.00
73749;PMS7003;62058;48.406;-4.514;2023-02-25T06:32:47;0.25;0.00;0.00
73749;PMS7003;62058;48.406;-4.514;2023-02-25T06:35:12;3.00;0.00;0.00
73749;PMS7003;62058;48.406;-4.514;2023-02-25T06:37:38;0.00;0.00;0.00
73749;PMS7003;62058;48.406;-4.514;2023-02-25T06:40:04;2.25;0.00;0.00
73749;PMS7003;62058;48.406;-4.514;2023-02-25T06:42:29;0.00;0.00;0.00
73749;PMS7003;62058;48.406;-4.514;2023-02-25T06:44:54;0.00;0.00;0.00
73749;PMS7003;62058;48.406;-4.514;2023-02-25T06:47:20;0.00;0.00;0.00
73749;PMS7003;62058;48.406;-4.514;2023-02-25T06:49:46;0.00;0.00;0.00
73749;PMS7003;62058;48.406;-4.514;2023-02-25T06:52:11;0.33;0.00;0.00
73749;PMS7003;62058;48.406;-4.514;2023-02-25T06:54:36;3.00;0.00;0.00
73749;PMS7003;62058;48.406;-4.514;2023-02-25T06:57:01;1.00;0.00;0.00
73749;PMS7003;62058;48.406;-4.514;2023-02-25T06:59:27;0.00;0.00;0.00
73749;PMS7003;62058;48.406;-4.514;2023-02-25T07:01:52;0.00;0.00;0.00
73749;PMS7003;62058;48.406;-4.514;2023-02-25T07:04:17;2.25;0.00;0.00
73749;PMS7003;62058;48.406;-4.514;2023-02-25T07:06:43;3.50;0.00;0.00
73749;PMS7003;62058;48.406;-4.514;2023-02-25T07:09:08;0.00;0.00;0.00
73749;PMS7003;62058;48.406;-4.514;2023-02-25T07:11:33;1.00;0.00;0.00
73749;PMS7003;62058;48.406;-4.514;2023-02-25T07:14:01;0.00;0.00;0.00
73749;PMS7003;62058;48.406;-4.514;2023-02-25T07:16:26;0.00;0.00;0.00
73749;PMS7003;62058;48.406;-4.514;2023-02-25T07:18:53;0.00;0.00;0.00
73749;PMS7003;62058;48.406;-4.514;2023-02-25T07:21:19;0.00;0.00;0.00
73749;PMS7003;62058;48.406;-4.514;2023-02-25T07:23:44;0.50;0.00;0.00
73749;PMS7003;62058;48.406;-4.514;2023-02-25T07:26:11;0.00;0.00;0.00
73749;PMS7003;62058;48.406;-4.514;2023-02-25T07:28:36;0.00;0.00;0.00
73749;PMS7003;62058;48.406;-4.514;2023-02-25T07:31:02;0.00;0.00;0.00
73749;PMS7003;62058;48.406;-4.514;2023-02-25T07:33:28;7.00;0.25;0.25
73749;PMS7003;62058;48.406;-4.514;2023-02-25T07:35:54;0.00;0.00;0.00
73749;PMS7003;62058;48.406;-4.514;2023-02-25T07:38:19;0.00;0.00;0.00
73749;PMS7003;62058;48.406;-4.514;2023-02-25T07:40:45;1.00;0.00;0.00
73749;PMS7003;62058;48.406;-4.514;2023-02-25T07:43:10;0.00;0.00;0.00
73749;PMS7003;62058;48.406;-4.514;2023-02-25T07:45:35;3.00;0.67;0.67
73749;PMS7003;62058;48.406;-4.514;2023-02-25T07:48:00;3.00;0.00;0.00
73749;PMS7003;62058;48.406;-4.514;2023-02-25T07:50:26;3.00;0.00;0.00
73749;PMS7003;62058;48.406;-4.514;2023-02-25T07:52:51;0.67;0.00;0.00
73749;PMS7003;62058;48.406;-4.514;2023-02-25T07:55:16;0.00;0.00;0.00
73749;PMS7003;62058;48.406;-4.514;2023-02-25T07:57:42;0.00;0.00;0.00
73749;PMS7003;62058;48.406;-4.514;2023-02-25T08:00:07;1.00;0.00;0.00
73749;PMS7003;62058;48.406;-4.514;2023-02-25T08:02:34;0.00;0.00;0.00
73749;PMS7003;62058;48.406;-4.514;2023-02-25T08:05:00;0.00;0.00;0.00
73749;PMS7003;62058;48.406;-4.514;2023-02-25T08:07:25;1.00;0.00;0.00
73749;PMS7003;62058;48.406;-4.514;2023-02-25T08:09:50;1.00;0.00;0.00
73749;PMS7003;62058;48.406;-4.514;2023-02-25T08:12:15;1.00;0.00;0.00
73749;PMS7003;62058;48.406;-4.514;2023-02-25T08:14:41;1.00;0.00;0.00
73749;PMS7003;62058;48.406;-4.514;2023-02-25T08:17:06;0.00;0.00;0.00
73749;PMS7003;62058;48.406;-4.514;2023-02-25T08:19:31;3.00;0.33;0.00
73749;PMS7003;62058;48.406;-4.514;2023-02-25T08:21:57;0.50;0.00;0.00
73749;PMS7003;62058;48.406;-4.514;2023-02-25T08:24:22;1.00;0.00;0.00
73749;PMS7003;62058;48.406;-4.514;2023-02-25T08:26:47;0.00;0.00;0.00
73749;PMS7003;62058;48.406;-4.514;2023-02-25T08:29:13;1.50;0.00;0.00
73749;PMS7003;62058;48.406;-4.514;2023-02-25T08:31:38;0.75;0.00;0.00
73749;PMS7003;62058;48.406;-4.514;2023-02-25T08:34:03;1.00;0.00;0.00
73749;PMS7003;62058;48.406;-4.514;2023-02-25T08:36:29;1.33;0.00;0.00
73749;PMS7003;62058;48.406;-4.514;2023-02-25T08:38:55;1.00;0.00;0.00
73749;PMS7003;62058;48.406;-4.514;2023-02-25T08:41:21;1.75;0.00;0.00
73749;PMS7003;62058;48.406;-4.514;2023-02-25T08:43:47;0.25;0.00;0.00
73749;PMS7003;62058;48.406;-4.514;2023-02-25T08:46:14;0.00;0.00;0.00
73749;PMS7003;62058;48.406;-4.514;2023-02-25T08:48:39;2.00;0.00;0.00
73749;PMS7003;62058;48.406;-4.514;2023-02-25T08:51:05;0.33;0.00;0.00
73749;PMS7003;62058;48.406;-4.514;2023-02-25T08:53:36;0.25;0.00;0.00
73749;PMS7003;62058;48.406;-4.514;2023-02-25T08:56:03;0.75;0.75;0.75
73749;PMS7003;62058;48.406;-4.514;2023-02-25T08:58:28;2.25;0.00;0.00
73749;PMS7003;62058;48.406;-4.514;2023-02-25T09:00:54;0.00;0.00;0.00
73749;PMS7003;62058;48.406;-4.514;2023-02-25T09:03:19;1.00;1.00;1.00
73749;PMS7003;62058;48.406;-4.514;2023-02-25T09:05:49;1.00;0.00;0.00
73749;PMS7003;62058;48.406;-4.514;2023-02-25T09:08:14;3.00;0.00;0.00
73749;PMS7003;62058;48.406;-4.514;2023-02-25T09:10:40;0.00;0.00;0.00
73749;PMS7003;62058;48.406;-4.514;2023-02-25T09:13:05;0.00;0.00;0.00
73749;PMS7003;62058;48.406;-4.514;2023-02-25T09:15:30;0.25;0.00;0.00
73749;PMS7003;62058;48.406;-4.514;2023-02-25T09:17:56;1.50;0.00;0.00
73749;PMS7003;62058;48.406;-4.514;2023-02-25T09:20:21;2.00;0.00;0.00
73749;PMS7003;62058;48.406;-4.514;2023-02-25T09:22:48;0.00;0.00;0.00
73749;PMS7003;62058;48.406;-4.514;2023-02-25T09:25:13;2.00;0.00;0.00
73749;PMS7003;62058;48.406;-4.514;2023-02-25T09:27:38;5.75;0.00;0.00
73749;PMS7003;62058;48.406;-4.514;2023-02-25T09:30:04;0.00;0.00;0.00
73749;PMS7003;62058;48.406;-4.514;2023-02-25T09:32:30;0.00;0.00;0.00
73749;PMS7003;62058;48.406;-4.514;2023-02-25T09:34:55;1.50;0.00;0.00
73749;PMS7003;62058;48.406;-4.514;2023-02-25T09:37:20;0.67;0.00;0.00
73749;PMS7003;62058;48.406;-4.514;2023-02-25T09:39:46;3.33;1.00;1.00
73749;PMS7003;62058;48.406;-4.514;2023-02-25T09:42:24;1.00;0.00;0.00
73749;PMS7003;62058;48.406;-4.514;2023-02-25T09:44:52;0.00;0.00;0.00
73749;PMS7003;62058;48.406;-4.514;2023-02-25T09:47:28;0.00;0.00;0.00
73749;PMS7003;62058;48.406;-4.514;2023-02-25T09:50:10;2.00;0.00;0.00
73749;PMS7003;62058;48.406;-4.514;2023-02-25T09:52:44;2.00;0.00;0.00
73749;PMS7003;62058;48.406;-4.514;2023-02-25T09:55:18;2.00;0.00;0.00
73749;PMS7003;62058;48.406;-4.514;2023-02-25T09:57:46;0.00;0.00;0.00
73749;PMS7003;62058;48.406;-4.514;2023-02-25T10:00:18;0.00;0.00;0.00
73749;PMS7003;62058;48.406;-4.514;2023-02-25T10:02:59;1.00;0.00;0.00
73749;PMS7003;62058;48.406;-4.514;2023-02-25T10:05:27;0.00;0.00;0.00
73749;PMS7003;62058;48.406;-4.514;2023-02-25T10:08:14;0.00;0.00;0.00
73749;PMS7003;62058;48.406;-4.514;2023-02-25T10:24:07;0.00;0.00;0.00
73749;PMS7003;62058;48.406;-4.514;2023-02-25T10:26:38;2.00;0.00;0.00
73749;PMS7003;62058;48.406;-4.514;2023-02-25T10:29:09;0.00;0.00;0.00
73749;PMS7003;62058;48.406;-4.514;2023-02-25T10:31:37;1.25;0.00;0.00
73749;PMS7003;62058;48.406;-4.514;2023-02-25T10:34:22;0.25;0.00;0.00
73749;PMS7003;62058;48.406;-4.514;2023-02-25T10:36:54;0.25;0.00;0.00
73749;PMS7003;62058;48.406;-4.514;2023-02-25T10:39:20;0.25;0.00;0.00
73749;PMS7003;62058;48.406;-4.514;2023-02-25T10:41:45;1.00;0.00;0.00
73749;PMS7003;62058;48.406;-4.514;2023-02-25T10:44:11;1.00;0.00;0.00
73749;PMS7003;62058;48.406;-4.514;2023-02-25T10:46:39;0.00;0.00;0.00
73749;PMS7003;62058;48.406;-4.514;2023-02-25T10:49:19;1.00;0.00;0.00
73749;PMS7003;62058;48.406;-4.514;2023-02-25T10:54:47;0.50;0.00;0.00
73749;PMS7003;62058;48.406;-4.514;2023-02-25T10:57:14;0.00;0.00;0.00
73749;PMS7003;62058;48.406;-4.514;2023-02-25T10:59:40;2.00;0.00;0.00
73749;PMS7003;62058;48.406;-4.514;2023-02-25T11:04:51;0.00;0.00;0.00
73749;PMS7003;62058;48.406;-4.514;2023-02-25T11:07:32;0.00;0.00;0.00
73749;PMS7003;62058;48.406;-4.514;2023-02-25T11:10:17;1.25;0.00;0.00
73749;PMS7003;62058;48.406;-4.514;2023-02-25T11:12:47;1.00;0.00;0.00
73749;PMS7003;62058;48.406;-4.514;2023-02-25T11:17:53;0.00;0.00;0.00
73749;PMS7003;62058;48.406;-4.514;2023-02-25T11:20:20;1.25;0.00;0.00
73749;PMS7003;62058;48.406;-4.514;2023-02-25T11:22:47;1.00;0.00;0.00
73749;PMS7003;62058;48.406;-4.514;2023-02-25T11:25:15;2.50;0.00;0.00
73749;PMS7003;62058;48.406;-4.514;2023-02-25T11:27:42;0.50;0.00;0.00
73749;PMS7003;62058;48.406;-4.514;2023-02-25T11:32:38;0.75;0.00;0.00
73749;PMS7003;62058;48.406;-4.514;2023-02-25T11:35:06;0.25;0.00;0.00
73749;PMS7003;62058;48.406;-4.514;2023-02-25T11:37:38;0.25;0.00;0.00
73749;PMS7003;62058;48.406;-4.514;2023-02-25T11:42:59;0.00;0.00;0.00
73749;PMS7003;62058;48.406;-4.514;2023-02-25T11:45:24;0.50;0.00;0.00
73749;PMS7003;62058;48.406;-4.514;2023-02-25T11:47:51;1.75;0.00;0.00
73749;PMS7003;62058;48.406;-4.514;2023-02-25T11:50:31;0.00;0.00;0.00
73749;PMS7003;62058;48.406;-4.514;2023-02-25T11:53:46;0.00;0.00;0.00
73749;PMS7003;62058;48.406;-4.514;2023-02-25T12:01:03;0.33;0.00;0.00
73749;PMS7003;62058;48.406;-4.514;2023-02-25T12:06:11;0.00;0.00;0.00
73749;PMS7003;62058;48.406;-4.514;2023-02-25T12:19:00;1.00;0.00;0.00
73749;PMS7003;62058;48.406;-4.514;2023-02-25T12:45:43;0.25;0.25;0.25
73749;PMS7003;62058;48.406;-4.514;2023-02-25T12:50:41;1.00;0.00;0.00
73749;PMS7003;62058;48.406;-4.514;2023-02-25T13:03:54;0.00;0.00;0.00
73749;PMS7003;62058;48.406;-4.514;2023-02-25T13:27:30;0.00;0.00;0.00
73749;PMS7003;62058;48.406;-4.514;2023-02-25T13:35:17;1.00;0.00;0.00
73749;PMS7003;62058;48.406;-4.514;2023-02-25T13:37:57;2.00;0.00;0.00
73749;PMS7003;62058;48.406;-4.514;2023-02-25T13:45:39;1.50;0.50;0.00
73749;PMS7003;62058;48.406;-4.514;2023-02-25T13:55:43;3.00;0.00;0.00
73749;PMS7003;62058;48.406;-4.514;2023-02-25T13:58:13;0.75;0.00;0.00
73749;PMS7003;62058;48.406;-4.514;2023-02-25T14:11:52;2.25;0.75;0.75
73749;PMS7003;62058;48.406;-4.514;2023-02-25T14:22:11;1.00;1.00;1.00
73749;PMS7003;62058;48.406;-4.514;2023-02-25T14:27:38;0.00;0.00;0.00
73749;PMS7003;62058;48.406;-4.514;2023-02-25T14:30:09;4.00;0.00;0.00
73749;PMS7003;62058;48.406;-4.514;2023-02-25T14:35:14;1.75;0.00;0.00
73749;PMS7003;62058;48.406;-4.514;2023-02-25T14:40:23;2.50;0.25;0.00
73749;PMS7003;62058;48.406;-4.514;2023-02-25T14:48:19;1.00;0.00;0.00
73749;PMS7003;62058;48.406;-4.514;2023-02-25T14:53:38;1.75;0.75;0.75
73749;PMS7003;62058;48.406;-4.514;2023-02-25T15:01:18;1.00;0.25;0.25
73749;PMS7003;62058;48.406;-4.514;2023-02-25T15:11:29;2.00;1.00;1.00
73749;PMS7003;62058;48.406;-4.514;2023-02-25T15:14:10;0.00;0.00;0.00
73749;PMS7003;62058;48.406;-4.514;2023-02-25T15:20:25;0.00;0.00;0.00
73749;PMS7003;62058;48.406;-4.514;2023-02-25T15:24:45;1.50;0.00;0.00
73749;PMS7003;62058;48.406;-4.514;2023-02-25T15:27:31;2.75;0.50;0.50
73749;PMS7003;62058;48.406;-4.514;2023-02-25T15:30:00;0.00;0.00;0.00
73749;PMS7003;62058;48.406;-4.514;2023-02-25T15:32:29;2.00;0.25;0.25
73749;PMS7003;62058;48.406;-4.514;2023-02-25T15:35:11;3.50;1.00;1.00
73749;PMS7003;62058;48.406;-4.514;2023-02-25T15:42:48;1.00;0.00;0.00
73749;PMS7003;62058;48.406;-4.514;2023-02-25T15:48:36;0.00;0.00;0.00
73749;PMS7003;62058;48.406;-4.514;2023-02-25T15:53:08;0.00;0.00;0.00
73749;PMS7003;62058;48.406;-4.514;2023-02-25T15:57:59;1.00;1.00;1.00
73749;PMS7003;62058;48.406;-4.514;2023-02-25T16:00:48;0.75;0.75;0.75
73749;PMS7003;62058;48.406;-4.514;2023-02-25T16:05:55;3.25;1.00;1.00
73749;PMS7003;62058;48.406;-4.514;2023-02-25T16:08:24;2.00;2.00;2.00
73749;PMS7003;62058;48.406;-4.514;2023-02-25T16:10:52;1.00;1.00;1.00
73749;PMS7003;62058;48.406;-4.514;2023-02-25T16:13:31;2.50;1.00;1.00
73749;PMS7003;62058;48.406;-4.514;2023-02-25T16:15:57;3.75;1.00;1.00
73749;PMS7003;62058;48.406;-4.514;2023-02-25T16:18:36;1.50;0.25;0.25
73749;PMS7003;62058;48.406;-4.514;2023-02-25T16:21:06;5.00;1.00;1.00
73749;PMS7003;62058;48.406;-4.514;2023-02-25T16:23:32;1.00;0.00;0.00
73749;PMS7003;62058;48.406;-4.514;2023-02-25T16:28:45;2.25;1.00;1.00
73749;PMS7003;62058;48.406;-4.514;2023-02-25T16:33:42;1.50;0.00;0.00
73749;PMS7003;62058;48.406;-4.514;2023-02-25T16:36:15;2.50;1.25;1.25
73749;PMS7003;62058;48.406;-4.514;2023-02-25T16:38:46;0.75;0.75;0.75
73749;PMS7003;62058;48.406;-4.514;2023-02-25T16:41:15;1.25;0.25;0.25
73749;PMS7003;62058;48.406;-4.514;2023-02-25T16:43:41;4.25;1.00;1.00
73749;PMS7003;62058;48.406;-4.514;2023-02-25T16:46:14;1.00;0.00;0.00
73749;PMS7003;62058;48.406;-4.514;2023-02-25T16:48:47;1.75;0.25;0.25
73749;PMS7003;62058;48.406;-4.514;2023-02-25T16:53:43;0.00;0.00;0.00
73749;PMS7003;62058;48.406;-4.514;2023-02-25T16:56:13;3.25;0.00;0.00
73749;PMS7003;62058;48.406;-4.514;2023-02-25T16:58:43;3.25;0.25;0.25
73749;PMS7003;62058;48.406;-4.514;2023-02-25T17:01:21;0.00;0.00;0.00
73749;PMS7003;62058;48.406;-4.514;2023-02-25T17:03:47;2.00;0.00;0.00
73749;PMS7003;62058;48.406;-4.514;2023-02-25T17:06:17;2.67;0.67;0.67
73749;PMS7003;62058;48.406;-4.514;2023-02-25T17:08:45;2.00;0.00;0.00
73749;PMS7003;62058;48.406;-4.514;2023-02-25T17:11:11;2.00;0.00;0.00
73749;PMS7003;62058;48.406;-4.514;2023-02-25T17:13:40;1.00;1.00;1.00
73749;PMS7003;62058;48.406;-4.514;2023-02-25T17:16:06;0.75;0.00;0.00
73749;PMS7003;62058;48.406;-4.514;2023-02-25T17:18:46;3.25;1.00;1.00
73749;PMS7003;62058;48.406;-4.514;2023-02-25T17:21:26;3.25;1.25;1.25
73749;PMS7003;62058;48.406;-4.514;2023-02-25T17:23:53;1.50;1.00;1.00
73749;PMS7003;62058;48.406;-4.514;2023-02-25T17:26:18;2.25;0.00;0.00
73749;PMS7003;62058;48.406;-4.514;2023-02-25T17:28:46;0.50;0.00;0.00
73749;PMS7003;62058;48.406;-4.514;2023-02-25T17:31:13;1.00;1.00;1.00
73749;PMS7003;62058;48.406;-4.514;2023-02-25T17:33:49;4.00;1.25;1.25
73749;PMS7003;62058;48.406;-4.514;2023-02-25T17:36:15;3.25;1.00;1.00
73749;PMS7003;62058;48.406;-4.514;2023-02-25T17:38:42;6.25;2.00;2.00
73749;PMS7003;62058;48.406;-4.514;2023-02-25T17:41:13;3.75;1.00;1.00